Time;durP1;ratioP1;P1;durP2;ratioP2;P2;SDS_P1;SDS_P2;PMS_P1;PMS_P2;Temp;Humidity;BMP_temperature;BMP_pressure;BME280_temperature;BME280_humidity;BME280_pressure;Samples;Min_cycle;Max_cycle;Signal;HPM_P1;HPM_P2
2023/07/06 00:02:00;;;;;;;9.25;5.78;;;14.00;99.90;;;;;;5048083;28;20559;-59
2023/07/06 00:04:26;;;;;;;14.15;6.63;;;14.00;99.90;;;;;;5049652;28;20029;-59
2023/07/06 00:06:52;;;;;;;10.80;6.18;;;13.90;99.90;;;;;;5050023;28;20441;-59
2023/07/06 00:09:18;;;;;;;11.45;6.50;;;13.90;99.90;;;;;;5063838;28;20032;-60
2023/07/06 00:11:44;;;;;;;11.20;6.32;;;13.90;99.90;;;;;;5067369;28;20033;-60
2023/07/06 00:14:11;;;;;;;9.90;6.45;;;13.90;99.90;;;;;;5029136;28;20037;-59
2023/07/06 00:16:43;;;;;;;11.85;6.25;;;13.80;99.90;;;;;;5052762;28;20037;-60
2023/07/06 00:19:09;;;;;;;10.85;6.72;;;13.80;99.90;;;;;;5066274;28;20120;-60
2023/07/06 00:21:35;;;;;;;13.10;6.70;;;13.70;99.90;;;;;;5053567;28;20120;-59
2023/07/06 00:24:01;;;;;;;9.52;6.28;;;13.80;99.90;;;;;;5063171;28;20044;-60
2023/07/06 00:26:27;;;;;;;12.40;6.50;;;13.80;99.90;;;;;;5036266;28;20033;-60
2023/07/06 00:28:55;;;;;;;10.88;6.82;;;13.80;99.90;;;;;;5062459;28;20487;-60
2023/07/06 00:31:32;;;;;;;10.50;6.72;;;13.70;99.90;;;;;;5054281;28;20090;-60
2023/07/06 00:34:04;;;;;;;10.63;6.32;;;13.70;99.90;;;;;;5054365;28;20064;-60
2023/07/06 00:36:33;;;;;;;12.13;6.65;;;13.70;99.90;;;;;;5060098;28;20102;-60
2023/07/06 00:39:01;;;;;;;9.77;5.88;;;13.60;99.90;;;;;;5066274;28;20512;-60
2023/07/06 00:41:28;;;;;;;9.93;6.18;;;13.60;99.90;;;;;;5073429;28;20048;-60
2023/07/06 00:43:55;;;;;;;10.68;6.28;;;13.60;99.90;;;;;;5060618;28;20049;-60
2023/07/06 00:46:23;;;;;;;10.07;6.22;;;13.60;99.90;;;;;;5065023;28;20037;-59
2023/07/06 00:48:51;;;;;;;9.20;6.60;;;13.50;99.90;;;;;;5032197;28;20041;-60
2023/07/06 00:51:27;;;;;;;10.68;6.40;;;13.50;99.90;;;;;;5054305;28;20118;-60
2023/07/06 00:54:01;;;;;;;9.98;6.40;;;13.50;99.90;;;;;;5054582;28;20076;-60
2023/07/06 00:56:31;;;;;;;8.80;6.15;;;13.50;99.90;;;;;;5053806;28;20044;-60
2023/07/06 00:59:03;;;;;;;10.30;5.68;;;13.50;99.90;;;;;;5035778;28;20407;-60
2023/07/06 01:01:32;;;;;;;7.93;6.40;;;13.50;99.90;;;;;;5066177;28;20036;-60
2023/07/06 01:03:59;;;;;;;9.80;6.20;;;13.50;99.90;;;;;;5049447;28;20108;-60
2023/07/06 01:06:48;;;;;;;11.18;6.40;;;13.40;99.90;;;;;;5053781;28;20033;-59
2023/07/06 01:09:15;;;;;;;10.27;6.38;;;13.40;99.90;;;;;;5053934;28;20047;-60
2023/07/06 01:11:41;;;;;;;8.57;5.97;;;13.40;99.90;;;;;;5053127;28;20108;-60
2023/07/06 01:14:14;;;;;;;10.65;6.40;;;13.40;99.90;;;;;;5062308;28;20477;-60
2023/07/06 01:17:05;;;;;;;12.13;6.50;;;13.30;99.90;;;;;;5061763;28;20033;-60
2023/07/06 01:19:30;;;;;;;;;;;13.30;99.90;;;;;;5045838;28;20041;-60
2023/07/06 01:22:23;;;;;;;7.38;5.90;;;13.30;99.90;;;;;;5050820;28;19924;-59
2023/07/06 01:25:37;;;;;;;9.55;6.43;;;13.20;99.90;;;;;;5053914;28;20045;-59
2023/07/06 01:28:27;;;;;;;10.80;6.45;;;13.20;99.90;;;;;;5035879;28;20044;-59
2023/07/06 01:31:16;;;;;;;15.02;6.75;;;13.20;99.90;;;;;;5071071;28;20522;-59
2023/07/06 01:33:48;;;;;;;12.02;6.38;;;13.20;99.90;;;;;;5009152;28;20045;-59
2023/07/06 01:36:24;;;;;;;10.90;6.25;;;13.10;99.90;;;;;;5050413;28;20558;-59
2023/07/06 01:39:14;;;;;;;9.45;6.68;;;13.10;99.90;;;;;;5053495;28;20487;-59
2023/07/06 01:41:40;;;;;;;11.60;7.00;;;13.10;99.90;;;;;;5070573;28;20036;-59
2023/07/06 01:44:11;;;;;;;10.60;6.78;;;13.10;99.90;;;;;;5060310;28;20506;-59
2023/07/06 01:46:41;;;;;;;9.15;6.55;;;13.10;99.90;;;;;;5037974;28;20044;-60
2023/07/06 01:49:07;;;;;;;10.00;6.55;;;13.10;99.90;;;;;;5046955;28;20407;-60
2023/07/06 01:51:48;;;;;;;9.98;6.70;;;13.10;99.90;;;;;;5033075;28;20048;-60
2023/07/06 01:54:20;;;;;;;10.40;6.75;;;13.10;99.90;;;;;;5048386;28;20456;-60
2023/07/06 01:57:04;;;;;;;11.27;6.57;;;13.10;99.90;;;;;;5052343;28;20064;-60
2023/07/06 01:59:32;;;;;;;10.40;6.70;;;13.10;99.90;;;;;;5053777;28;20123;-60
2023/07/06 02:02:01;;;;;;;10.98;6.85;;;13.00;99.90;;;;;;5060063;28;20513;-60
2023/07/06 02:04:32;;;;;;;11.38;6.93;;;13.00;99.90;;;;;;5046890;28;20045;-60
2023/07/06 02:07:01;;;;;;;12.38;7.00;;;13.00;99.90;;;;;;5049016;28;20112;-60
2023/07/06 02:09:27;;;;;;;9.30;6.85;;;13.00;99.90;;;;;;5058061;28;20115;-60
2023/07/06 02:11:53;;;;;;;8.95;6.53;;;13.10;99.90;;;;;;5054793;28;20540;-60
2023/07/06 02:14:20;;;;;;;11.02;6.95;;;13.10;99.90;;;;;;5051227;28;20032;-60
2023/07/06 02:16:46;;;;;;;11.95;7.75;;;13.10;99.90;;;;;;5016307;28;20127;-60
2023/07/06 02:19:11;;;;;;;13.38;7.18;;;13.10;99.90;;;;;;5047380;28;20456;-60
2023/07/06 02:21:38;;;;;;;10.82;7.25;;;13.10;99.90;;;;;;5045208;28;20045;-60
2023/07/06 02:24:05;;;;;;;12.98;7.07;;;13.10;99.90;;;;;;5030642;28;20102;-60
2023/07/06 02:26:32;;;;;;;10.20;7.15;;;13.10;99.90;;;;;;5042952;28;20049;-59
2023/07/06 02:28:57;;;;;;;11.05;6.70;;;13.10;99.90;;;;;;5052605;28;20117;-60
2023/07/06 02:31:23;;;;;;;11.57;7.47;;;13.10;99.90;;;;;;5072850;28;20124;-60
2023/07/06 02:33:48;;;;;;;9.60;6.57;;;13.10;99.90;;;;;;5051401;28;20037;-60
2023/07/06 02:36:16;;;;;;;10.52;6.68;;;13.10;99.90;;;;;;5051844;28;20075;-60
2023/07/06 02:38:42;;;;;;;13.25;7.28;;;13.10;99.90;;;;;;5048562;28;20060;-60
2023/07/06 02:41:08;;;;;;;13.02;6.70;;;13.10;99.90;;;;;;5052269;28;20491;-60
2023/07/06 02:43:33;;;;;;;12.48;6.93;;;13.00;99.90;;;;;;5051607;28;20045;-60
2023/07/06 02:46:01;;;;;;;10.60;7.18;;;13.00;99.90;;;;;;5052745;28;20491;-60
2023/07/06 02:48:26;;;;;;;11.60;7.38;;;13.10;99.90;;;;;;5059212;28;20029;-59
2023/07/06 02:50:52;;;;;;;10.13;7.25;;;13.00;99.90;;;;;;5057430;28;20040;-60
2023/07/06 02:53:19;;;;;;;11.25;7.03;;;13.00;99.90;;;;;;5050913;28;20029;-60
2023/07/06 02:55:46;;;;;;;10.60;6.82;;;13.00;99.90;;;;;;5059093;28;20050;-60
2023/07/06 02:58:12;;;;;;;10.07;6.85;;;13.00;99.90;;;;;;5059447;28;20068;-60
2023/07/06 03:00:37;;;;;;;10.85;7.38;;;13.00;99.90;;;;;;5067016;28;20038;-60
2023/07/06 03:03:03;;;;;;;12.20;7.30;;;13.00;99.90;;;;;;5066353;28;20040;-60
2023/07/06 03:05:30;;;;;;;13.00;7.70;;;13.00;99.90;;;;;;5054906;28;20041;-60
2023/07/06 03:07:55;;;;;;;10.88;6.97;;;13.00;99.90;;;;;;5047521;28;20040;-60
2023/07/06 03:10:24;;;;;;;11.90;7.38;;;13.00;99.90;;;;;;5051489;28;20124;-60
2023/07/06 03:12:51;;;;;;;17.15;8.00;;;13.00;99.90;;;;;;5051116;28;20363;-60
2023/07/06 03:15:16;;;;;;;15.77;7.75;;;13.00;99.90;;;;;;5051634;28;20040;-59
2023/07/06 03:17:48;;;;;;;12.90;7.47;;;13.00;99.90;;;;;;5054581;28;20565;-59
2023/07/06 03:20:14;;;;;;;11.55;7.50;;;13.00;99.90;;;;;;5045975;28;20080;-59
2023/07/06 03:22:45;;;;;;;13.45;7.60;;;13.00;99.90;;;;;;5052880;28;20075;-59
2023/07/06 03:25:11;;;;;;;;;;;13.10;99.90;;;;;;5045849;28;20390;-59
2023/07/06 03:27:37;;;;;;;12.65;7.43;;;13.00;99.90;;;;;;5049009;28;19960;-59
2023/07/06 03:30:09;;;;;;;14.18;7.55;;;13.00;99.90;;;;;;5061960;28;20040;-59
2023/07/06 03:32:37;;;;;;;14.00;8.02;;;13.00;99.90;;;;;;5067378;28;20405;-59
2023/07/06 03:35:03;;;;;;;13.50;7.70;;;13.10;99.90;;;;;;5060506;28;20049;-59
2023/07/06 03:37:29;;;;;;;13.80;7.30;;;13.00;99.90;;;;;;5058554;28;20032;-59
2023/07/06 03:39:55;;;;;;;13.52;7.15;;;13.10;99.90;;;;;;5045729;28;20122;-60
2023/07/06 03:42:20;;;;;;;11.43;7.07;;;13.00;99.90;;;;;;5054454;28;20051;-60
2023/07/06 03:44:46;;;;;;;10.45;7.10;;;13.00;99.90;;;;;;5036389;28;20550;-60
2023/07/06 03:47:12;;;;;;;12.85;7.53;;;13.00;99.90;;;;;;5060755;28;20375;-60
2023/07/06 03:49:37;;;;;;;11.70;7.07;;;13.00;99.90;;;;;;5058312;28;20107;-60
2023/07/06 03:52:04;;;;;;;11.35;7.75;;;13.10;99.90;;;;;;5067136;28;20055;-60
2023/07/06 03:54:30;;;;;;;10.85;7.00;;;13.10;99.90;;;;;;5075684;28;20040;-60
2023/07/06 03:56:56;;;;;;;15.20;7.82;;;13.10;99.90;;;;;;5069125;28;20036;-60
2023/07/06 03:59:22;;;;;;;14.13;8.07;;;13.10;99.90;;;;;;5066661;28;20142;-60
2023/07/06 04:01:48;;;;;;;12.38;7.13;;;13.10;99.90;;;;;;5051761;28;20040;-60
2023/07/06 04:04:15;;;;;;;12.05;7.32;;;13.10;99.90;;;;;;5058656;28;20041;-60
2023/07/06 04:06:41;;;;;;;12.38;7.45;;;13.20;99.90;;;;;;5039627;28;20069;-60
2023/07/06 04:09:09;;;;;;;14.52;7.30;;;13.20;99.90;;;;;;5064762;28;20090;-59
2023/07/06 04:11:36;;;;;;;16.98;8.10;;;13.20;99.90;;;;;;5058262;28;20041;-60
2023/07/06 04:14:03;;;;;;;15.82;8.57;;;13.20;99.90;;;;;;5065652;28;20110;-60
2023/07/06 04:16:29;;;;;;;14.45;8.50;;;13.20;99.90;;;;;;5074045;28;20041;-60
2023/07/06 04:18:55;;;;;;;14.75;8.07;;;13.30;99.90;;;;;;5058942;28;20048;-60
2023/07/06 04:21:22;;;;;;;16.60;8.27;;;13.30;99.90;;;;;;5062097;28;20044;-60
2023/07/06 04:23:48;;;;;;;15.65;8.23;;;13.30;99.90;;;;;;5063202;28;20045;-60
2023/07/06 04:26:15;;;;;;;12.05;8.40;;;13.30;99.90;;;;;;5075230;28;20075;-60
2023/07/06 04:28:42;;;;;;;14.07;8.38;;;13.40;99.90;;;;;;5063809;28;20028;-60
2023/07/06 04:31:08;;;;;;;15.05;8.57;;;13.30;99.90;;;;;;5072273;28;20037;-60
2023/07/06 04:33:34;;;;;;;13.90;8.63;;;13.40;99.90;;;;;;5057328;28;20387;-60
2023/07/06 04:36:02;;;;;;;16.58;9.30;;;13.50;99.90;;;;;;5072967;28;20032;-60
2023/07/06 04:38:29;;;;;;;16.67;9.20;;;13.50;99.90;;;;;;5063340;28;20059;-60
2023/07/06 04:40:56;;;;;;;15.82;8.95;;;13.50;99.90;;;;;;5066175;28;20032;-60
2023/07/06 04:43:22;;;;;;;18.52;9.80;;;13.50;99.90;;;;;;5062267;28;20037;-60
2023/07/06 04:45:48;;;;;;;16.23;9.73;;;13.50;99.90;;;;;;5055916;28;20025;-60
2023/07/06 04:48:16;;;;;;;15.02;8.90;;;13.60;99.90;;;;;;5065801;22;20052;-63
2023/07/06 04:50:43;;;;;;;16.80;9.55;;;13.60;99.90;;;;;;5053562;28;20040;-63
2023/07/06 04:53:09;;;;;;;17.17;9.73;;;13.60;99.90;;;;;;5058045;28;20041;-64
2023/07/06 04:55:36;;;;;;;15.07;8.93;;;13.60;99.90;;;;;;5043694;28;20032;-66
2023/07/06 04:58:05;;;;;;;17.77;9.35;;;13.60;99.90;;;;;;5054161;28;20045;-66
2023/07/06 05:00:33;;;;;;;16.55;9.90;;;13.60;99.90;;;;;;5054707;28;20048;-66
2023/07/06 05:03:02;;;;;;;19.90;9.88;;;13.60;99.90;;;;;;5053101;28;20037;-65
2023/07/06 05:05:33;;;;;;;16.13;9.68;;;13.60;99.90;;;;;;5055059;28;20079;-65
2023/07/06 05:07:59;;;;;;;17.40;10.18;;;13.70;99.90;;;;;;5044481;28;20037;-73
2023/07/06 05:10:26;;;;;;;15.82;9.98;;;13.80;99.90;;;;;;5046647;28;20037;-73
2023/07/06 05:12:52;;;;;;;17.00;10.25;;;13.90;99.90;;;;;;5053849;28;20616;-73
2023/07/06 05:15:19;;;;;;;18.67;10.40;;;14.00;99.90;;;;;;5054242;28;20120;-73
2023/07/06 05:17:44;;;;;;;17.60;10.88;;;14.20;99.90;;;;;;5052846;28;20041;-73
2023/07/06 05:20:14;;;;;;;17.05;10.18;;;14.30;99.90;;;;;;5057487;28;20405;-73
2023/07/06 05:22:47;;;;;;;18.27;9.88;;;14.40;99.90;;;;;;5053725;28;20069;-71
2023/07/06 05:25:14;;;;;;;20.02;10.48;;;14.50;99.90;;;;;;5053166;28;20045;-71
2023/07/06 05:27:40;;;;;;;19.60;9.45;;;14.60;99.90;;;;;;5051832;28;20073;-71
2023/07/06 05:30:07;;;;;;;19.17;10.20;;;14.70;99.90;;;;;;5053690;28;20069;-71
2023/07/06 05:32:33;;;;;;;15.75;9.55;;;14.80;99.90;;;;;;5052285;28;20443;-71
2023/07/06 05:34:58;;;;;;;20.73;10.32;;;14.90;99.90;;;;;;5052969;28;20513;-71
2023/07/06 05:37:25;;;;;;;18.80;10.02;;;15.00;99.90;;;;;;5033868;28;20041;-71
2023/07/06 05:39:50;;;;;;;21.98;10.73;;;15.20;99.90;;;;;;5032186;28;20056;-71
2023/07/06 05:42:17;;;;;;;18.08;10.70;;;15.40;99.90;;;;;;5032121;28;20037;-71
2023/07/06 05:44:44;;;;;;;19.88;9.75;;;15.70;99.90;;;;;;5052433;28;20044;-70
2023/07/06 05:47:10;;;;;;;15.18;9.52;;;15.80;99.90;;;;;;5052348;28;20090;-71
2023/07/06 05:49:36;;;;;;;19.80;10.05;;;15.90;99.90;;;;;;5053425;28;20037;-71
2023/07/06 05:52:03;;;;;;;17.55;9.25;;;15.80;99.90;;;;;;5053550;28;20041;-71
2023/07/06 05:54:30;;;;;;;15.40;9.77;;;15.90;99.90;;;;;;5052868;28;20041;-70
2023/07/06 05:56:57;;;;;;;15.77;9.10;;;15.90;99.90;;;;;;5051257;28;20079;-71
2023/07/06 05:59:26;;;;;;;18.65;9.90;;;16.00;99.90;;;;;;5041352;28;20033;-71
2023/07/06 06:01:52;;;;;;;19.02;9.38;;;16.00;99.90;;;;;;5053598;28;20067;-71
2023/07/06 06:04:18;;;;;;;17.48;8.82;;;16.00;99.90;;;;;;5052532;28;20052;-71
2023/07/06 06:06:56;;;;;;;19.17;8.95;;;16.00;99.90;;;;;;5052617;28;20450;-71
2023/07/06 06:09:24;;;;;;;21.70;9.30;;;16.10;99.90;;;;;;5057794;28;20115;-71
2023/07/06 06:11:50;;;;;;;14.45;9.27;;;16.20;99.90;;;;;;5049485;28;20040;-71
2023/07/06 06:14:16;;;;;;;17.77;9.13;;;16.20;99.90;;;;;;5050239;28;20052;-71
2023/07/06 06:16:42;;;;;;;19.40;9.48;;;16.20;99.90;;;;;;5054643;28;20038;-71
2023/07/06 06:19:08;;;;;;;16.00;8.98;;;16.30;99.90;;;;;;5051122;28;20040;-71
2023/07/06 06:21:34;;;;;;;15.88;8.50;;;16.30;99.90;;;;;;5051558;28;20406;-71
2023/07/06 06:24:02;;;;;;;13.93;8.43;;;16.40;99.90;;;;;;5056540;28;20040;-71
2023/07/06 06:26:29;;;;;;;14.55;8.95;;;16.40;99.90;;;;;;5048541;28;20033;-72
2023/07/06 06:28:57;;;;;;;14.85;9.13;;;16.50;99.90;;;;;;5049157;28;20713;-71
2023/07/06 06:31:24;;;;;;;19.50;9.32;;;16.60;99.90;;;;;;5050672;28;20445;-71
2023/07/06 06:33:50;;;;;;;19.30;8.80;;;16.60;99.90;;;;;;5049391;28;20029;-71
2023/07/06 06:36:17;;;;;;;15.85;8.88;;;16.70;99.90;;;;;;5049602;28;20086;-72
2023/07/06 06:38:43;;;;;;;16.50;9.45;;;16.80;99.90;;;;;;5052303;28;20037;-71
2023/07/06 06:41:10;;;;;;;14.32;8.82;;;16.80;99.90;;;;;;5036541;28;21174;-71
2023/07/06 06:43:40;;;;;;;22.05;9.32;;;16.80;99.90;;;;;;5028447;28;20045;-71
2023/07/06 06:46:07;;;;;;;16.83;9.25;;;16.80;99.90;;;;;;5026624;28;20131;-71
2023/07/06 06:48:33;;;;;;;17.05;9.27;;;16.80;99.90;;;;;;5028099;28;20041;-71
2023/07/06 06:51:04;;;;;;;14.68;8.98;;;16.90;99.90;;;;;;5042847;28;20033;-71
2023/07/06 06:53:30;;;;;;;18.55;9.00;;;17.00;99.90;;;;;;5041194;28;20041;-71
2023/07/06 06:55:57;;;;;;;16.63;8.82;;;16.90;99.90;;;;;;5047643;28;20033;-71
2023/07/06 06:58:24;;;;;;;16.35;8.63;;;17.10;99.90;;;;;;5046952;28;20056;-72
2023/07/06 07:00:59;;;;;;;18.77;9.50;;;17.20;99.90;;;;;;5045444;28;20037;-71
2023/07/06 07:03:28;;;;;;;19.55;10.32;;;17.30;99.90;;;;;;5050064;28;20037;-71
2023/07/06 07:06:11;;;;;;;19.27;10.00;;;17.10;99.90;;;;;;5052087;28;20029;-71
2023/07/06 07:08:44;;;;;;;17.33;9.43;;;17.20;99.90;;;;;;5057232;28;20151;-71
2023/07/06 07:11:11;;;;;;;20.05;10.07;;;17.50;99.90;;;;;;5063352;28;20035;-71
2023/07/06 07:13:38;;;;;;;20.83;9.77;;;17.60;99.90;;;;;;5071320;28;20044;-71
2023/07/06 07:16:05;;;;;;;21.33;9.93;;;17.80;99.90;;;;;;5056212;28;20041;-71
2023/07/06 07:18:32;;;;;;;16.60;9.57;;;18.00;99.90;;;;;;5058545;28;20041;-71
2023/07/06 07:20:58;;;;;;;19.48;10.50;;;18.00;99.90;;;;;;5050692;28;20402;-71
2023/07/06 07:23:26;;;;;;;19.90;10.00;;;17.90;99.90;;;;;;5049623;28;20045;-71
2023/07/06 07:25:52;;;;;;;18.60;9.60;;;17.80;99.90;;;;;;5049304;28;20040;-71
2023/07/06 07:28:18;;;;;;;14.80;8.85;;;17.60;99.90;;;;;;5051645;28;20044;-71
2023/07/06 07:30:56;;;;;;;19.80;10.05;;;17.40;99.90;;;;;;5048279;28;20040;-71
2023/07/06 07:33:22;;;;;;;18.77;10.48;;;17.30;99.90;;;;;;5049048;28;20116;-70
2023/07/06 07:35:48;;;;;;;19.08;9.38;;;17.50;99.90;;;;;;5041844;28;20044;-70
2023/07/06 07:38:16;;;;;;;21.20;10.30;;;17.70;99.90;;;;;;5047641;28;20037;-71
2023/07/06 07:40:57;;;;;;;17.90;9.98;;;17.90;99.90;;;;;;5047031;28;20431;-71
2023/07/06 07:43:27;;;;;;;22.50;11.82;;;17.90;99.90;;;;;;5049479;28;20040;-71
2023/07/06 07:45:55;;;;;;;21.40;13.45;;;17.80;99.90;;;;;;5054137;28;20033;-71
2023/07/06 07:48:25;;;;;;;22.88;13.52;;;17.80;99.90;;;;;;5062736;28;20157;-71
2023/07/06 07:50:56;;;;;;;23.67;13.60;;;17.80;99.90;;;;;;5050194;28;20124;-71
2023/07/06 07:53:25;;;;;;;24.23;14.40;;;18.00;99.90;;;;;;5047418;28;20041;-71
2023/07/06 07:55:53;;;;;;;20.15;13.82;;;18.20;99.90;;;;;;5050051;28;20058;-71
2023/07/06 07:58:19;;;;;;;18.10;12.23;;;18.30;99.90;;;;;;5048919;28;20029;-71
2023/07/06 08:00:51;;;;;;;21.48;14.50;;;18.60;99.90;;;;;;5044251;28;20033;-71
2023/07/06 08:03:17;;;;;;;18.27;12.48;;;18.80;99.90;;;;;;5060766;28;20506;-70
2023/07/06 08:05:43;;;;;;;21.20;12.15;;;19.20;99.90;;;;;;5050380;28;20048;-70
2023/07/06 08:08:10;;;;;;;19.75;11.85;;;19.10;99.90;;;;;;5070895;28;20033;-70
2023/07/06 08:10:40;;;;;;;17.30;11.55;;;19.00;99.90;;;;;;5065773;28;20037;-70
2023/07/06 08:13:09;;;;;;;18.38;11.23;;;19.20;99.90;;;;;;5062078;28;20086;-71
2023/07/06 08:15:38;;;;;;;19.00;11.07;;;19.40;99.90;;;;;;5054034;28;20037;-71
2023/07/06 08:18:09;;;;;;;16.02;10.38;;;19.60;99.90;;;;;;5042535;28;20041;-71
2023/07/06 08:20:35;;;;;;;17.90;9.98;;;19.80;99.90;;;;;;5051610;28;20041;-71
2023/07/06 08:23:02;;;;;;;13.70;9.30;;;20.00;99.90;;;;;;5051602;28;20040;-70
2023/07/06 08:25:28;;;;;;;18.33;9.90;;;20.20;99.90;;;;;;5048566;28;20033;-71
2023/07/06 08:27:56;;;;;;;16.67;9.40;;;20.30;99.90;;;;;;5049586;28;20036;-71
2023/07/06 08:30:22;;;;;;;19.20;9.02;;;20.40;99.90;;;;;;5056164;28;20029;-71
2023/07/06 08:32:49;;;;;;;12.70;7.93;;;20.40;99.90;;;;;;5048482;28;20041;-71
2023/07/06 08:35:17;;;;;;;14.00;7.88;;;20.50;99.90;;;;;;5042133;28;20040;-71
2023/07/06 08:37:43;;;;;;;15.52;8.60;;;20.60;99.90;;;;;;5054248;28;20033;-70
2023/07/06 08:40:17;;;;;;;13.43;7.70;;;20.60;99.90;;;;;;5054510;28;20069;-70
2023/07/06 08:42:47;;;;;;;11.80;8.05;;;20.70;99.90;;;;;;5051945;28;20037;-70
2023/07/06 08:45:19;;;;;;;11.82;7.82;;;20.80;99.90;;;;;;5056324;28;20486;-70
2023/07/06 08:47:47;;;;;;;14.00;9.75;;;20.90;99.90;;;;;;5066017;28;20048;-70
2023/07/06 08:50:15;;;;;;;13.85;9.35;;;21.00;99.90;;;;;;5051442;28;20398;-71
2023/07/06 08:52:42;;;;;;;14.23;9.70;;;21.10;99.90;;;;;;5047934;28;20497;-70
2023/07/06 08:55:16;;;;;;;8.90;7.63;;;21.10;99.90;;;;;;5049987;28;20052;-71
2023/07/06 08:57:46;;;;;;;12.15;7.07;;;21.20;99.90;;;;;;5053351;28;20040;-72
2023/07/06 09:00:25;;;;;;;17.10;7.80;;;21.20;99.90;;;;;;5062812;28;20044;-73
2023/07/06 09:02:54;;;;;;;13.73;7.07;;;21.30;99.90;;;;;;5052526;28;20040;-73
2023/07/06 09:05:20;;;;;;;11.52;6.88;;;21.20;99.90;;;;;;5055483;28;20406;-72
2023/07/06 09:07:47;;;;;;;10.50;6.32;;;21.30;99.90;;;;;;5054032;28;20037;-72
2023/07/06 09:10:17;;;;;;;8.85;6.15;;;21.50;99.90;;;;;;5053097;28;20514;-72
2023/07/06 09:12:43;;;;;;;10.87;6.03;;;21.60;99.90;;;;;;5050249;28;20033;-72
2023/07/06 09:15:09;;;;;;;12.75;6.50;;;21.60;99.90;;;;;;5061321;28;20068;-72
2023/07/06 09:17:45;;;;;;;13.10;5.68;;;21.50;99.90;;;;;;5052354;28;20116;-72
2023/07/06 09:20:12;;;;;;;10.07;5.30;;;21.40;99.90;;;;;;5063852;28;20063;-72
2023/07/06 09:22:41;;;;;;;10.02;5.63;;;21.30;99.90;;;;;;5060159;28;20037;-72
2023/07/06 09:25:17;;;;;;;8.70;5.63;;;21.20;99.90;;;;;;5055924;28;20052;-70
2023/07/06 09:27:48;;;;;;;8.80;4.90;;;21.00;99.90;;;;;;5051672;28;20517;-72
2023/07/06 09:30:36;;;;;;;9.10;5.00;;;20.80;99.90;;;;;;5051468;28;20395;-71
2023/07/06 09:33:13;;;;;;;10.43;4.85;;;20.60;99.90;;;;;;5054598;28;20036;-71
2023/07/06 09:35:39;;;;;;;9.50;5.30;;;20.40;99.90;;;;;;5052192;28;20044;-71
2023/07/06 09:38:06;;;;;;;8.98;4.72;;;20.30;99.90;;;;;;5064427;28;20383;-71
2023/07/06 09:40:32;;;;;;;8.57;4.97;;;20.40;99.90;;;;;;5057321;28;20159;-71
2023/07/06 09:42:58;;;;;;;9.25;5.10;;;20.50;99.90;;;;;;5051191;28;20120;-71
2023/07/06 09:45:26;;;;;;;6.85;4.40;;;20.50;99.90;;;;;;5047788;28;20036;-71
2023/07/06 09:47:57;;;;;;;7.25;4.82;;;20.50;99.90;;;;;;5049118;28;20035;-71
2023/07/06 09:50:48;;;;;;;12.50;4.68;;;20.30;99.90;;;;;;5058551;28;20040;-71
2023/07/06 09:53:26;;;;;;;5.32;4.03;;;20.30;99.90;;;;;;5050997;28;20044;-71
2023/07/06 09:55:54;;;;;;;6.65;4.07;;;20.20;99.90;;;;;;5051597;28;20110;-71
2023/07/06 09:58:26;;;;;;;8.02;3.78;;;20.40;99.90;;;;;;5062641;28;20036;-71
2023/07/06 10:01:15;;;;;;;8.95;4.60;;;20.60;99.90;;;;;;5065356;28;20024;-71
2023/07/06 10:03:50;;;;;;;7.63;4.13;;;20.70;99.90;;;;;;5067593;28;20040;-71
2023/07/06 10:06:27;;;;;;;4.20;2.83;;;20.80;99.90;;;;;;5052491;28;20517;-71
2023/07/06 10:09:14;;;;;;;4.55;2.67;;;20.80;99.90;;;;;;5048741;28;20064;-71
2023/07/06 10:11:55;;;;;;;3.95;2.53;;;20.90;99.90;;;;;;5037523;28;20068;-71
2023/07/06 10:14:34;;;;;;;5.22;3.10;;;20.90;99.90;;;;;;5036973;28;20041;-70
2023/07/06 10:17:37;;;;;;;6.55;3.03;;;20.90;99.90;;;;;;5051170;28;20064;-70
2023/07/06 10:20:26;;;;;;;5.53;2.90;;;20.70;99.90;;;;;;5013345;28;20048;-70
2023/07/06 10:23:06;;;;;;;7.25;2.70;;;20.60;99.90;;;;;;5052731;28;20494;-70
2023/07/06 10:25:39;;;;;;;4.88;2.40;;;20.60;99.90;;;;;;5052867;28;20051;-70
2023/07/06 10:28:13;;;;;;;4.75;2.47;;;20.60;99.90;;;;;;5052831;28;20044;-71
2023/07/06 10:30:45;;;;;;;4.47;2.30;;;20.60;99.90;;;;;;5051523;28;20503;-70
2023/07/06 10:33:46;;;;;;;4.32;2.20;;;20.70;99.90;;;;;;5044651;28;20128;-72
2023/07/06 10:36:13;;;;;;;6.57;2.42;;;20.80;99.90;;;;;;5049733;28;20067;-72
2023/07/06 10:38:39;;;;;;;5.00;2.80;;;20.80;99.90;;;;;;5039843;28;20059;-71
2023/07/06 10:41:10;;;;;;;5.60;3.00;;;20.90;99.90;;;;;;5052186;28;20375;-71
2023/07/06 10:43:40;;;;;;;7.82;3.22;;;21.10;99.90;;;;;;5040886;28;20045;-71
2023/07/06 10:46:53;;;;;;;5.10;2.47;;;21.40;99.90;;;;;;5052320;28;20473;-71
2023/07/06 10:49:21;;;;;;;7.90;3.05;;;21.40;99.90;;;;;;5032024;22;20040;-63
2023/07/06 10:51:55;;;;;;;9.20;3.42;;;21.40;99.90;;;;;;5038528;28;20506;-65
2023/07/06 10:54:25;;;;;;;7.13;3.08;;;21.50;99.90;;;;;;5044215;28;20440;-64
2023/07/06 10:57:03;;;;;;;5.65;2.67;;;21.70;99.90;;;;;;5052619;28;20124;-65
2023/07/06 10:59:49;;;;;;;7.07;2.60;;;22.00;99.90;;;;;;5041879;28;20075;-65
2023/07/06 11:02:40;;;;;;;3.83;1.65;;;22.20;99.90;;;;;;5031758;28;20445;-63
2023/07/06 11:05:29;;;;;;;4.15;1.95;;;22.30;99.90;;;;;;5050541;28;20060;-63
2023/07/06 11:07:57;;;;;;;4.40;2.33;;;22.40;99.90;;;;;;5050540;28;20037;-65
2023/07/06 11:10:51;;;;;;;3.22;1.58;;;22.40;99.90;;;;;;5052083;28;20036;-63
2023/07/06 11:13:20;;;;;;;3.85;1.60;;;22.50;98.80;;;;;;5049719;28;20057;-63
2023/07/06 11:15:56;;;;;;;6.55;1.80;;;22.50;99.90;;;;;;5052061;28;20135;-64
2023/07/06 11:18:21;;;;;;;4.88;1.75;;;22.60;97.40;;;;;;5043285;28;20034;-63
2023/07/06 11:21:17;;;;;;;4.28;1.98;;;22.60;96.70;;;;;;5047880;28;20115;-63
2023/07/06 11:23:52;;;;;;;6.55;2.15;;;22.70;96.80;;;;;;5047392;28;20049;-64
2023/07/06 11:26:41;;;;;;;6.88;1.73;;;22.70;96.60;;;;;;5052092;28;20041;-63
2023/07/06 11:29:08;;;;;;;3.88;1.30;;;22.60;95.40;;;;;;5046968;28;20120;-63
2023/07/06 11:31:45;;;;;;;3.92;1.70;;;22.50;95.10;;;;;;5046353;28;20597;-63
2023/07/06 11:34:38;;;;;;;5.15;1.85;;;22.50;94.80;;;;;;5042413;28;20037;-63
2023/07/06 11:37:18;;;;;;;6.05;2.05;;;22.60;95.70;;;;;;5051329;28;20041;-63
2023/07/06 11:40:19;;;;;;;2.85;1.50;;;22.80;95.60;;;;;;5050229;28;20037;-63
2023/07/06 11:42:56;;;;;;;4.53;1.48;;;23.00;95.10;;;;;;5047628;28;20052;-63
2023/07/06 11:45:58;;;;;;;3.20;1.50;;;23.00;94.10;;;;;;5051281;28;20053;-64
2023/07/06 11:48:46;;;;;;;6.80;1.60;;;23.00;92.20;;;;;;5050480;28;20556;-63
2023/07/06 11:51:13;;;;;;;3.97;1.63;;;23.10;91.00;;;;;;5049586;28;20040;-64
2023/07/06 11:53:54;;;;;;;6.05;1.90;;;23.10;91.60;;;;;;5051369;28;20514;-63
2023/07/06 11:59:26;;;;;;;4.55;1.67;;;23.30;91.40;;;;;;5050489;28;20474;-63
2023/07/06 12:02:00;;;;;;;6.35;2.03;;;23.50;91.50;;;;;;5051574;28;20037;-64
2023/07/06 12:04:29;;;;;;;5.65;1.95;;;23.40;91.00;;;;;;5051324;28;20037;-63
2023/07/06 12:06:57;;;;;;;4.45;1.42;;;23.10;90.20;;;;;;5047841;28;20033;-63
2023/07/06 12:09:24;;;;;;;2.85;1.30;;;22.90;90.60;;;;;;5049936;28;20044;-64
2023/07/06 12:12:06;;;;;;;4.68;1.52;;;22.70;90.90;;;;;;5053614;28;20115;-63
2023/07/06 12:14:34;;;;;;;3.75;1.80;;;22.70;91.30;;;;;;5054962;28;20045;-63
2023/07/06 12:17:01;;;;;;;5.47;1.80;;;22.60;91.00;;;;;;5046097;28;20048;-64
2023/07/06 12:19:30;;;;;;;4.03;2.10;;;22.60;91.00;;;;;;5055048;28;20048;-63
2023/07/06 12:21:57;;;;;;;5.18;1.90;;;22.70;91.10;;;;;;5054120;28;20044;-64
2023/07/06 12:24:25;;;;;;;4.43;1.50;;;22.90;91.40;;;;;;5054903;28;20029;-64
2023/07/06 12:26:55;;;;;;;4.32;1.67;;;23.10;91.80;;;;;;5045222;28;20128;-64
2023/07/06 12:29:29;;;;;;;3.55;1.60;;;23.20;91.40;;;;;;5054699;28;20040;-64
2023/07/06 12:32:08;;;;;;;2.60;1.70;;;23.20;89.20;;;;;;5037348;28;20036;-65
2023/07/06 12:34:35;;;;;;;3.72;1.80;;;23.00;87.90;;;;;;5054420;28;20371;-65
2023/07/06 12:37:02;;;;;;;4.13;1.95;;;23.00;87.80;;;;;;5045491;28;20455;-64
2023/07/06 12:39:31;;;;;;;3.40;1.80;;;23.00;86.00;;;;;;5049251;28;20040;-64
2023/07/06 12:41:56;;;;;;;5.75;2.10;;;23.00;86.30;;;;;;5045784;28;20483;-64
2023/07/06 12:44:26;;;;;;;3.58;2.28;;;22.90;88.60;;;;;;5054556;28;20044;-64
2023/07/06 12:46:55;;;;;;;3.60;2.20;;;22.90;88.90;;;;;;5053358;28;20028;-64
2023/07/06 12:49:23;;;;;;;3.70;2.53;;;22.90;88.00;;;;;;5054520;28;20037;-64
2023/07/06 12:51:54;;;;;;;5.82;3.20;;;22.70;88.90;;;;;;5054262;28;20034;-64
2023/07/06 12:54:24;;;;;;;5.70;3.58;;;22.60;90.50;;;;;;5053760;28;20056;-64
2023/07/06 12:56:59;;;;;;;4.47;3.25;;;22.40;91.50;;;;;;5053393;28;20043;-64
2023/07/06 12:59:31;;;;;;;6.70;3.60;;;22.20;92.00;;;;;;5053693;28;20461;-64
2023/07/06 13:01:57;;;;;;;8.38;3.65;;;22.10;92.80;;;;;;5054576;28;20041;-63